Time;durP1;ratioP1;P1;durP2;ratioP2;P2;SDS_P1;SDS_P2;PMS_P1;PMS_P2;Temp;Humidity;BMP_temperature;BMP_pressure;BME280_temperature;BME280_humidity;BME280_pressure;Samples;Min_cycle;Max_cycle;Signal;HPM_P1;HPM_P2
2023/06/27 00:02:00;;;;;;;3.53;2.23;;;;;;;20.56;50.38;156650.84;5066482;28;20544;-77
2023/06/27 00:04:28;;;;;;;3.20;2.30;;;;;;;20.51;50.62;156636.50;5064578;28;20460;-77
2023/06/27 00:06:54;;;;;;;2.27;1.73;;;;;;;20.51;50.35;156636.50;5097513;28;20994;-77
2023/06/27 00:09:22;;;;;;;3.20;2.03;;;;;;;20.50;50.46;156635.19;5065937;28;20522;-77
2023/06/27 00:11:49;;;;;;;3.67;2.17;;;;;;;20.50;50.66;156635.19;5065734;28;20448;-77
2023/06/27 00:14:18;;;;;;;4.20;2.03;;;;;;;20.49;50.78;156631.28;5066847;28;20446;-77
2023/06/27 00:16:45;;;;;;;2.53;1.77;;;;;;;20.48;50.78;156629.97;5069277;28;20512;-77
2023/06/27 00:19:13;;;;;;;2.63;2.13;;;;;;;20.43;50.86;156616.94;5069101;28;20452;-77
2023/06/27 00:21:39;;;;;;;3.80;2.50;;;;;;;20.41;50.82;156611.69;5093899;28;20944;-77
2023/06/27 00:24:06;;;;;;;6.20;2.30;;;;;;;20.34;51.44;156592.13;5079111;28;20444;-77
2023/06/27 00:26:33;;;;;;;3.40;2.27;;;;;;;20.25;51.48;156570.00;5073997;28;20441;-77
2023/06/27 00:28:59;;;;;;;3.13;2.03;;;;;;;20.20;51.65;156556.84;5066458;28;20460;-77
2023/06/27 00:31:26;;;;;;;2.77;2.00;;;;;;;20.16;51.54;156545.13;5060512;28;20474;-77
2023/06/27 00:33:53;;;;;;;3.57;2.07;;;;;;;20.18;51.91;156550.34;5042807;28;20454;-76
2023/06/27 00:36:21;;;;;;;3.90;2.27;;;;;;;20.14;51.86;156541.25;5034496;28;20478;-76
2023/06/27 00:38:47;;;;;;;3.93;2.23;;;;;;;20.13;52.07;156537.31;5029431;28;20459;-77
2023/06/27 00:41:14;;;;;;;2.93;2.20;;;;;;;20.04;52.44;156515.19;5036588;28;20855;-76
2023/06/27 00:43:41;;;;;;;2.50;2.20;;;;;;;20.00;52.63;156504.72;5040142;28;20497;-76
2023/06/27 00:46:08;;;;;;;4.93;2.80;;;;;;;19.97;52.34;156496.88;5046602;28;20462;-76
2023/06/27 00:48:35;;;;;;;2.23;1.70;;;;;;;19.96;52.61;156494.31;5044908;28;20531;-76
2023/06/27 00:51:03;;;;;;;6.37;2.10;;;;;;;19.93;52.79;156487.78;5038828;28;20466;-76
2023/06/27 00:53:31;;;;;;;2.80;2.23;;;;;;;19.90;52.75;156479.97;5055537;28;20800;-76
2023/06/27 00:55:58;;;;;;;2.23;2.03;;;;;;;19.86;53.10;156468.19;5037767;28;20467;-76
2023/06/27 00:58:25;;;;;;;5.03;2.37;;;;;;;19.83;53.07;156460.41;5034889;28;20548;-76
2023/06/27 01:00:52;;;;;;;4.20;2.40;;;;;;;19.84;53.40;156463.00;5044234;28;20609;-76
2023/06/27 01:03:21;;;;;;;3.77;2.20;;;;;;;19.83;53.17;156460.41;5048773;28;20881;-76
2023/06/27 01:05:47;;;;;;;2.97;1.90;;;;;;;19.84;53.14;156463.00;5041293;28;20480;-76
2023/06/27 01:08:19;;;;;;;5.77;2.00;;;;;;;19.87;53.01;156470.81;5062599;28;20994;-76
2023/06/27 01:10:50;;;;;;;3.13;1.93;;;;;;;19.81;53.00;156456.47;5038070;28;20474;-76
2023/06/27 01:13:24;;;;;;;2.80;2.10;;;;;;;19.80;52.93;156453.84;5045168;28;20481;-76
2023/06/27 01:15:52;;;;;;;2.90;2.00;;;;;;;19.79;53.49;156451.28;5051069;28;20447;-76
2023/06/27 01:18:20;;;;;;;3.50;2.20;;;;;;;19.81;53.25;156455.16;5018367;28;20804;-76
2023/06/27 01:20:46;;;;;;;5.03;2.40;;;;;;;19.78;53.20;156448.63;5049837;28;20458;-77
2023/06/27 01:23:17;;;;;;;4.33;2.17;;;;;;;19.76;53.64;156442.13;5033236;28;20849;-76
2023/06/27 01:25:45;;;;;;;2.70;2.20;;;;;;;19.78;53.39;156447.31;5050740;28;20454;-76
2023/06/27 01:28:14;;;;;;;2.90;1.90;;;;;;;19.78;53.41;156447.31;5054033;28;20458;-76
2023/06/27 01:30:41;;;;;;;2.87;2.03;;;;;;;19.79;53.45;156451.28;5035330;28;20462;-76
2023/06/27 01:33:14;;;;;;;3.00;2.30;;;;;;;19.71;53.60;156429.09;5059312;28;20565;-76
2023/06/27 01:35:46;;;;;;;3.40;2.60;;;;;;;19.66;54.00;156416.06;5065028;28;21181;-76
2023/06/27 01:38:21;;;;;;;4.77;2.33;;;;;;;19.60;53.95;156401.72;5054150;28;21068;-76
2023/06/27 01:40:50;;;;;;;3.27;2.40;;;;;;;19.57;54.40;156393.88;5076905;28;20449;-76
2023/06/27 01:43:17;;;;;;;3.33;2.40;;;;;;;19.60;53.93;156400.41;5087169;28;20457;-76
2023/06/27 01:45:44;;;;;;;3.47;2.23;;;;;;;19.60;53.97;156401.72;5063727;28;20452;-76
2023/06/27 01:48:11;;;;;;;4.30;2.37;;;;;;;19.58;53.90;156395.19;5073351;28;20494;-76
2023/06/27 01:50:38;;;;;;;4.73;2.10;;;;;;;19.57;53.98;156392.56;5082877;28;20460;-76
2023/06/27 01:53:05;;;;;;;3.00;2.17;;;;;;;19.54;53.85;156384.78;5068931;28;20552;-76
2023/06/27 01:55:32;;;;;;;3.67;2.20;;;;;;;19.53;53.74;156382.16;5085697;28;20471;-76
2023/06/27 01:58:00;;;;;;;4.30;2.20;;;;;;;19.52;54.13;156380.84;5080199;28;20478;-76
2023/06/27 02:00:28;;;;;;;5.33;2.27;;;;;;;19.49;54.07;156371.72;5066137;28;20514;-76
2023/06/27 02:02:54;;;;;;;3.40;2.20;;;;;;;19.44;54.36;156361.31;5067070;28;20447;-76
2023/06/27 02:05:21;;;;;;;3.00;2.37;;;;;;;19.43;54.21;156358.69;5076145;28;21023;-76
2023/06/27 02:07:47;;;;;;;3.70;2.30;;;;;;;19.41;54.37;156352.16;5071917;28;20456;-76
2023/06/27 02:10:14;;;;;;;3.20;2.20;;;;;;;19.38;54.20;156345.66;5070633;28;20862;-76
2023/06/27 02:12:41;;;;;;;3.10;2.20;;;;;;;19.41;54.28;156352.16;5043849;28;20450;-76
2023/06/27 02:15:09;;;;;;;5.50;2.13;;;;;;;19.38;54.21;156345.66;5054004;28;20450;-76
2023/06/27 02:17:36;;;;;;;6.00;2.73;;;;;;;19.32;54.43;156328.69;5086790;28;20492;-76
2023/06/27 02:20:03;;;;;;;2.27;2.07;;;;;;;19.27;54.70;156316.91;5077163;28;20869;-76
2023/06/27 02:22:30;;;;;;;3.50;2.13;;;;;;;19.27;54.59;156316.91;5063658;28;20488;-76
2023/06/27 02:24:56;;;;;;;3.70;2.40;;;;;;;19.25;54.66;156310.41;5075040;28;20464;-76
2023/06/27 02:27:23;;;;;;;3.00;1.97;;;;;;;19.24;54.58;156309.13;5083204;28;20453;-76
2023/06/27 02:29:50;;;;;;;5.10;2.33;;;;;;;19.23;54.83;156306.53;5075325;28;20462;-76
2023/06/27 02:32:17;;;;;;;3.17;2.50;;;;;;;19.22;54.90;156302.63;5068491;28;20485;-76
2023/06/27 02:34:44;;;;;;;3.40;2.17;;;;;;;19.20;54.91;156298.69;5069741;28;20448;-77
2023/06/27 02:37:13;;;;;;;4.17;2.27;;;;;;;19.20;54.91;156297.38;5065177;28;20645;-77
2023/06/27 02:39:39;;;;;;;2.30;1.90;;;;;;;19.21;54.76;156301.31;5078023;28;20461;-77
2023/06/27 02:42:06;;;;;;;2.60;2.10;;;;;;;19.17;55.25;156290.88;5086111;28;20456;-77
2023/06/27 02:44:33;;;;;;;3.13;2.10;;;;;;;19.17;54.99;156290.88;5077947;28;20510;-77
2023/06/27 02:46:59;;;;;;;4.30;2.27;;;;;;;19.16;54.72;156288.28;5054657;28;20965;-77
2023/06/27 02:49:27;;;;;;;3.13;2.40;;;;;;;19.16;54.88;156288.28;5056293;28;20467;-77
2023/06/27 02:51:55;;;;;;;3.37;2.43;;;;;;;19.14;55.03;156281.78;5047789;28;20448;-77
2023/06/27 02:54:22;;;;;;;5.50;2.87;;;;;;;19.13;55.28;156279.16;5068587;28;20464;-77
2023/06/27 02:56:48;;;;;;;6.50;2.63;;;;;;;19.13;55.02;156280.47;5071689;28;20559;-77
2023/06/27 02:59:15;;;;;;;4.53;2.10;;;;;;;19.13;55.00;156279.16;5053547;28;20522;-77
2023/06/27 03:01:41;;;;;;;3.50;2.03;;;;;;;19.10;55.13;156271.31;5056816;28;20459;-77
2023/06/27 03:04:10;;;;;;;3.93;2.30;;;;;;;19.10;54.88;156272.63;5044674;28;20448;-77
2023/06/27 03:06:38;;;;;;;3.40;2.60;;;;;;;19.06;55.35;156262.19;5047975;28;20442;-77
2023/06/27 03:09:06;;;;;;;2.73;2.03;;;;;;;19.03;55.30;156254.41;5061019;28;20492;-77
2023/06/27 03:11:32;;;;;;;3.23;2.50;;;;;;;18.97;55.58;156238.75;5049383;28;20452;-76
2023/06/27 03:14:00;;;;;;;2.30;1.80;;;;;;;18.94;55.45;156230.94;5078610;28;20457;-77
2023/06/27 03:16:26;;;;;;;4.20;2.30;;;;;;;18.90;55.72;156219.22;5072568;28;20500;-77
2023/06/27 03:18:53;;;;;;;4.07;2.90;;;;;;;18.89;55.84;156216.59;5061274;28;20450;-77
2023/06/27 03:21:20;;;;;;;3.30;2.20;;;;;;;18.84;55.67;156204.88;5070420;28;20523;-77
2023/06/27 03:23:48;;;;;;;3.10;2.30;;;;;;;18.83;55.89;156202.25;5051857;28;20498;-77
2023/06/27 03:26:14;;;;;;;2.57;2.30;;;;;;;18.76;56.13;156184.03;5088242;28;20468;-77
2023/06/27 03:28:41;;;;;;;2.77;2.23;;;;;;;18.73;56.30;156177.53;5079389;28;20465;-77
2023/06/27 03:31:07;;;;;;;3.17;2.43;;;;;;;18.72;56.31;156173.59;5066169;28;20473;-76
2023/06/27 03:33:34;;;;;;;3.87;2.60;;;;;;;18.67;56.54;156161.88;5084923;28;20444;-77
2023/06/27 03:36:01;;;;;;;3.07;2.27;;;;;;;18.65;56.17;156155.38;5070885;28;20836;-77
2023/06/27 03:38:27;;;;;;;3.23;1.73;;;;;;;18.64;56.13;156152.75;5087015;28;20482;-76
2023/06/27 03:40:58;;;;;;;3.10;2.20;;;;;;;18.61;56.51;156144.97;5070385;28;20507;-77
2023/06/27 03:43:25;;;;;;;5.17;2.50;;;;;;;18.59;56.59;156139.72;5064072;28;20923;-76
2023/06/27 03:45:51;;;;;;;5.03;2.63;;;;;;;18.58;56.63;156137.13;5059592;28;20470;-77
2023/06/27 03:48:18;;;;;;;4.50;2.93;;;;;;;18.54;56.95;156126.69;5056675;28;20445;-77
2023/06/27 03:50:44;;;;;;;3.10;2.60;;;;;;;18.51;56.94;156120.19;5104281;28;20456;-76
2023/06/27 03:53:11;;;;;;;4.57;2.53;;;;;;;18.50;56.91;156117.59;5055879;28;20446;-76
2023/06/27 03:55:40;;;;;;;5.53;2.13;;;;;;;18.52;56.81;156122.81;5063237;28;20561;-76
2023/06/27 03:58:08;;;;;;;2.60;2.00;;;;;;;18.55;56.89;156130.63;5067210;28;20452;-77
2023/06/27 04:00:35;;;;;;;3.40;2.23;;;;;;;18.54;56.88;156126.69;5075475;28;20457;-77
2023/06/27 04:03:02;;;;;;;2.43;2.17;;;;;;;18.51;56.80;156118.88;5039972;28;20450;-82
2023/06/27 04:05:29;;;;;;;2.40;2.03;;;;;;;18.57;56.51;156134.53;5060488;28;20544;-82
2023/06/27 04:07:55;;;;;;;3.30;2.40;;;;;;;18.56;56.82;156133.19;5064368;28;20488;-82
2023/06/27 04:10:22;;;;;;;6.50;2.60;;;;;;;18.56;56.53;156131.94;5064574;28;20458;-82
2023/06/27 04:12:49;;;;;;;6.60;2.40;;;;;;;18.56;56.76;156131.94;5041815;28;20915;-82
2023/06/27 04:15:17;;;;;;;6.13;2.80;;;;;;;18.57;56.61;156134.53;5080145;28;20468;-82
2023/06/27 04:17:44;;;;;;;3.13;2.20;;;;;;;18.54;56.69;156128.00;5069599;28;20473;-82
2023/06/27 04:20:12;;;;;;;3.83;2.20;;;;;;;18.55;57.15;156129.31;5074364;28;20883;-82
2023/06/27 04:22:39;;;;;;;5.10;2.67;;;;;;;18.55;56.75;156129.31;5072739;28;20448;-82
2023/06/27 04:25:08;;;;;;;3.70;2.27;;;;;;;18.55;57.08;156129.31;5064751;28;20462;-83
2023/06/27 04:27:35;;;;;;;3.80;2.33;;;;;;;18.53;57.07;156124.13;5053525;28;20461;-82
2023/06/27 04:30:03;;;;;;;2.80;2.20;;;;;;;18.51;56.85;156120.19;5050050;28;20566;-83
2023/06/27 04:32:33;;;;;;;2.90;2.33;;;;;;;18.53;56.88;156124.13;5059016;28;20536;-82
2023/06/27 04:35:00;;;;;;;7.07;2.57;;;;;;;18.54;57.05;156126.69;5070192;28;20466;-82
2023/06/27 04:37:26;;;;;;;3.77;2.20;;;;;;;18.52;57.25;156121.50;5080409;28;20470;-82
2023/06/27 04:39:53;;;;;;;3.90;2.67;;;;;;;18.52;57.07;156121.50;5070419;28;20445;-82
2023/06/27 04:42:20;;;;;;;4.63;2.63;;;;;;;18.52;56.98;156122.81;5082643;28;20452;-82
2023/06/27 04:44:47;;;;;;;4.67;2.20;;;;;;;18.53;57.23;156125.38;5071679;28;20508;-82
2023/06/27 04:47:13;;;;;;;5.27;2.43;;;;;;;18.53;57.17;156124.13;5059447;28;21132;-82
2023/06/27 04:49:41;;;;;;;3.50;2.03;;;;;;;18.54;57.05;156128.00;5073492;28;20514;-82
2023/06/27 04:52:08;;;;;;;3.60;2.20;;;;;;;18.56;57.22;156133.19;5067412;28;20539;-82
2023/06/27 04:54:35;;;;;;;3.80;2.40;;;;;;;18.57;57.47;156134.53;5080168;28;20460;-82
2023/06/27 04:57:02;;;;;;;3.13;2.20;;;;;;;18.61;57.38;156144.97;5073431;28;20983;-82
2023/06/27 04:59:28;;;;;;;5.83;2.50;;;;;;;18.58;57.41;156137.13;5064651;28;20971;-83
2023/06/27 05:01:55;;;;;;;4.83;2.30;;;;;;;18.52;57.77;156121.50;5056921;28;20544;-83
2023/06/27 05:04:21;;;;;;;5.60;2.33;;;;;;;18.49;58.34;156113.66;5043214;28;20841;-83
2023/06/27 05:06:49;;;;;;;2.57;1.93;;;;;;;18.49;57.71;156114.97;5058977;28;20469;-83
2023/06/27 05:09:16;;;;;;;3.93;2.47;;;;;;;18.45;57.82;156104.53;5072424;28;20471;-83
2023/06/27 05:11:42;;;;;;;2.70;2.13;;;;;;;18.49;57.31;156113.66;5061321;28;20920;-83
2023/06/27 05:14:09;;;;;;;3.60;2.53;;;;;;;18.50;57.28;156117.59;5073541;28;20453;-83
2023/06/27 05:16:35;;;;;;;4.23;2.30;;;;;;;18.54;57.44;156126.69;5071927;28;20460;-83
2023/06/27 05:19:02;;;;;;;2.43;2.20;;;;;;;18.52;57.62;156121.50;5068116;28;21000;-83
2023/06/27 05:21:29;;;;;;;3.23;2.43;;;;;;;18.54;58.02;156126.69;5064772;28;20450;-83
2023/06/27 05:23:57;;;;;;;2.90;2.47;;;;;;;18.63;56.97;156150.16;5057097;28;20591;-82
2023/06/27 05:26:25;;;;;;;6.20;2.20;;;;;;;18.59;57.73;156141.03;5035435;28;20549;-82
2023/06/27 05:28:51;;;;;;;3.83;2.30;;;;;;;18.69;57.34;156165.81;5037998;28;20445;-82
2023/06/27 05:31:18;;;;;;;2.60;2.00;;;;;;;18.71;57.26;156172.31;5057603;28;20474;-81
2023/06/27 05:33:45;;;;;;;4.33;3.10;;;;;;;18.76;57.02;156184.03;5054974;28;20450;-81
2023/06/27 05:36:12;;;;;;;2.47;2.13;;;;;;;18.84;56.44;156204.88;5075674;28;20549;-83
2023/06/27 05:38:39;;;;;;;2.43;1.80;;;;;;;18.84;56.78;156204.88;5053741;28;20470;-79
2023/06/27 05:41:09;;;;;;;3.23;1.90;;;;;;;18.81;57.00;156197.06;5075083;28;20466;-80
2023/06/27 05:43:36;;;;;;;3.00;2.20;;;;;;;18.85;56.90;156207.47;5075310;28;20445;-79
2023/06/27 05:46:03;;;;;;;4.30;2.43;;;;;;;18.92;56.59;156224.41;5076609;28;20453;-79
2023/06/27 05:48:29;;;;;;;3.03;2.30;;;;;;;18.90;56.95;156219.22;5059692;28;20470;-79
2023/06/27 05:50:56;;;;;;;3.60;2.30;;;;;;;18.98;56.43;156241.38;5076904;28;20449;-79
2023/06/27 05:53:23;;;;;;;3.13;2.13;;;;;;;19.00;56.55;156246.59;5062443;28;21025;-79
2023/06/27 05:55:49;;;;;;;2.83;2.20;;;;;;;19.08;56.05;156267.44;5064253;28;20473;-79
2023/06/27 05:58:17;;;;;;;4.30;2.53;;;;;;;19.06;56.40;156262.19;5062516;28;20477;-79
2023/06/27 06:00:44;;;;;;;4.77;2.53;;;;;;;19.11;56.41;156275.25;5061189;28;20900;-79
2023/06/27 06:03:10;;;;;;;5.33;2.63;;;;;;;19.12;55.96;156277.84;5070813;28;20834;-79
2023/06/27 06:05:37;;;;;;;3.93;2.47;;;;;;;19.18;56.04;156292.19;5070020;28;20531;-77
2023/06/27 06:08:04;;;;;;;2.77;2.47;;;;;;;19.33;55.81;156332.56;5076348;28;20536;-77
2023/06/27 06:10:30;;;;;;;3.57;2.57;;;;;;;19.46;55.47;156365.19;5069665;28;20450;-77
2023/06/27 06:12:57;;;;;;;3.77;2.10;;;;;;;19.58;54.74;156396.50;5073852;28;20449;-77
2023/06/27 06:15:25;;;;;;;2.80;2.43;;;;;;;19.62;54.44;156405.66;5056660;28;20457;-77
2023/06/27 06:17:51;;;;;;;5.10;2.60;;;;;;;19.69;53.11;156423.88;5071314;28;20481;-78
2023/06/27 06:20:18;;;;;;;3.80;2.23;;;;;;;19.64;53.17;156410.84;5058942;28;20519;-77
2023/06/27 06:22:44;;;;;;;4.10;2.37;;;;;;;19.61;52.51;156404.34;5065743;28;20473;-78
2023/06/27 06:25:11;;;;;;;3.10;2.30;;;;;;;19.59;53.16;156397.81;5075076;28;20458;-78
2023/06/27 06:27:37;;;;;;;2.77;2.40;;;;;;;19.51;53.54;156376.97;5063429;28;20460;-78
2023/06/27 06:30:05;;;;;;;2.23;2.00;;;;;;;19.51;53.32;156378.28;5074640;28;20460;-78
2023/06/27 06:32:33;;;;;;;3.27;2.50;;;;;;;19.48;53.59;156369.13;5071226;28;20469;-78
2023/06/27 06:34:59;;;;;;;3.47;2.27;;;;;;;19.56;53.91;156390.00;5057138;28;20461;-78
2023/06/27 06:37:26;;;;;;;4.57;2.57;;;;;;;19.79;52.99;156449.94;5072416;28;20454;-78
2023/06/27 06:39:52;;;;;;;3.20;2.30;;;;;;;19.87;51.20;156470.81;5068172;28;20464;-78
2023/06/27 06:42:19;;;;;;;3.40;2.77;;;;;;;20.01;52.00;156507.34;5073970;28;20457;-78
2023/06/27 06:44:47;;;;;;;4.37;2.10;;;;;;;20.17;51.62;156547.75;5059191;28;21208;-78
2023/06/27 06:47:14;;;;;;;3.10;1.90;;;;;;;20.35;50.88;156596.06;5070803;28;20473;-78
2023/06/27 06:49:42;;;;;;;3.73;2.57;;;;;;;20.56;50.20;156650.84;5073847;28;21056;-79
2023/06/27 06:52:08;;;;;;;4.83;2.57;;;;;;;20.54;49.45;156644.34;5074846;28;20449;-78
2023/06/27 06:54:35;;;;;;;4.70;2.07;;;;;;;20.58;49.15;156656.06;5075311;28;20469;-79
2023/06/27 06:57:01;;;;;;;3.60;2.13;;;;;;;20.75;49.48;156697.81;5066187;28;20457;-78
2023/06/27 06:59:28;;;;;;;3.07;2.30;;;;;;;21.08;48.87;156785.28;5074526;28;20485;-78
2023/06/27 07:01:54;;;;;;;3.37;2.83;;;;;;;21.34;46.93;156851.81;5064526;28;20457;-78
2023/06/27 07:04:21;;;;;;;3.53;2.83;;;;;;;21.53;47.11;156901.44;5068580;28;20455;-78
2023/06/27 07:06:49;;;;;;;3.07;2.00;;;;;;;21.71;47.46;156947.16;5065505;28;20462;-78
2023/06/27 07:09:16;;;;;;;4.00;2.00;;;;;;;22.07;46.38;157041.22;5054262;28;20446;-78
2023/06/27 07:11:42;;;;;;;3.47;2.40;;;;;;;22.30;45.38;157099.94;5055991;28;20507;-78
2023/06/27 07:14:09;;;;;;;3.37;2.20;;;;;;;22.33;46.17;157107.78;5050630;28;20468;-79
2023/06/27 07:16:36;;;;;;;5.77;2.30;;;;;;;22.22;45.46;157080.38;5074351;28;20461;-79
2023/06/27 07:19:03;;;;;;;3.90;2.10;;;;;;;22.17;45.89;157066.00;5053907;28;20477;-79
2023/06/27 07:21:29;;;;;;;5.27;2.20;;;;;;;21.91;46.36;156999.41;5067486;28;20540;-79
2023/06/27 07:24:01;;;;;;;4.10;2.50;;;;;;;21.64;46.58;156930.16;5064664;28;20990;-78
2023/06/27 07:26:28;;;;;;;4.47;2.00;;;;;;;21.23;47.25;156823.16;5053915;28;20466;-79
2023/06/27 07:28:55;;;;;;;3.50;2.93;;;;;;;21.26;47.34;156830.94;5047806;28;20800;-79
2023/06/27 07:31:24;;;;;;;3.53;2.50;;;;;;;21.31;46.80;156844.03;5060778;28;20503;-79
2023/06/27 07:33:51;;;;;;;3.47;2.17;;;;;;;21.42;47.45;156872.72;5062787;28;20518;-78
2023/06/27 07:36:18;;;;;;;4.93;2.67;;;;;;;21.76;46.18;156960.22;5062577;28;20469;-79
2023/06/27 07:38:44;;;;;;;2.83;1.80;;;;;;;21.85;45.66;156985.00;5069281;28;20888;-78
2023/06/27 07:41:12;;;;;;;4.17;2.07;;;;;;;21.85;45.83;156983.69;5054774;28;20452;-78
2023/06/27 07:43:38;;;;;;;2.97;2.47;;;;;;;22.14;45.17;157058.16;5061709;28;20449;-79
2023/06/27 07:46:05;;;;;;;4.90;2.30;;;;;;;22.15;45.09;157060.78;5071727;28;20771;-79
2023/06/27 07:48:32;;;;;;;3.17;2.30;;;;;;;21.88;46.08;156991.56;5058544;28;20828;-79
2023/06/27 07:50:58;;;;;;;2.80;2.43;;;;;;;21.79;45.70;156968.00;5074940;28;20453;-79
2023/06/27 07:53:25;;;;;;;2.40;2.20;;;;;;;21.67;45.71;156936.69;5065514;28;20867;-79
2023/06/27 07:55:51;;;;;;;3.63;2.60;;;;;;;21.62;46.09;156923.63;5070604;28;20464;-79
2023/06/27 07:58:19;;;;;;;3.13;2.40;;;;;;;21.82;45.91;156977.16;5072077;28;20546;-79
2023/06/27 08:00:45;;;;;;;2.60;2.17;;;;;;;21.80;45.67;156971.94;5061631;28;20455;-78
2023/06/27 08:03:12;;;;;;;3.37;2.70;;;;;;;21.70;46.17;156945.84;5068182;28;20461;-78
2023/06/27 08:05:39;;;;;;;3.17;2.20;;;;;;;21.64;46.55;156928.84;5051686;28;20457;-78
2023/06/27 08:08:05;;;;;;;3.13;2.50;;;;;;;21.81;46.44;156973.25;5058211;28;20827;-78
2023/06/27 08:10:32;;;;;;;3.90;2.17;;;;;;;21.72;46.15;156951.06;5073780;28;20936;-79
2023/06/27 08:12:58;;;;;;;3.40;2.70;;;;;;;21.50;46.75;156893.59;5057740;28;20502;-78
2023/06/27 08:15:26;;;;;;;4.70;2.93;;;;;;;21.31;47.21;156842.72;5071711;28;20867;-78
2023/06/27 08:17:53;;;;;;;3.77;2.50;;;;;;;21.42;47.05;156872.72;5056515;28;20489;-79
2023/06/27 08:20:19;;;;;;;2.73;2.30;;;;;;;21.66;47.50;156934.06;5052308;28;21391;-79
2023/06/27 08:22:46;;;;;;;4.20;3.10;;;;;;;21.90;47.04;156996.78;5072464;28;20518;-79
2023/06/27 08:25:12;;;;;;;2.67;2.47;;;;;;;22.02;46.96;157026.84;5070936;28;20454;-78
2023/06/27 08:27:39;;;;;;;3.67;2.57;;;;;;;21.93;46.28;157003.31;5051487;28;20446;-78
2023/06/27 08:30:08;;;;;;;5.83;3.83;;;;;;;21.94;46.92;157007.25;5066903;28;20817;-77
2023/06/27 08:32:36;;;;;;;5.50;4.30;;;;;;;21.97;46.50;157013.78;5066614;28;20491;-77
2023/06/27 08:35:05;;;;;;;11.43;6.67;;;;;;;21.94;46.43;157005.94;5069298;28;20955;-77
2023/06/27 08:37:32;;;;;;;6.07;4.50;;;;;;;22.08;46.93;157042.53;5071037;28;20811;-77
2023/06/27 08:39:58;;;;;;;5.13;3.37;;;;;;;22.13;46.89;157055.56;5061161;28;20496;-77
2023/06/27 08:42:25;;;;;;;3.37;2.20;;;;;;;21.98;46.90;157017.69;5069080;28;20462;-77
2023/06/27 08:44:51;;;;;;;3.10;2.37;;;;;;;21.88;47.12;156991.56;5071233;28;20457;-77
2023/06/27 08:47:20;;;;;;;4.33;2.80;;;;;;;21.65;47.89;156932.78;5057163;28;20539;-77
2023/06/27 08:49:50;;;;;;;3.63;2.63;;;;;;;21.75;47.68;156957.59;5072369;28;20461;-77
2023/06/27 08:52:18;;;;;;;2.60;2.40;;;;;;;21.89;47.81;156992.88;5060316;28;20545;-77
2023/06/27 08:54:48;;;;;;;5.03;3.10;;;;;;;22.15;46.86;157062.09;5069500;28;20444;-77
2023/06/27 08:57:15;;;;;;;6.00;3.67;;;;;;;22.16;45.86;157063.41;5054695;28;20461;-77
2023/06/27 08:59:44;;;;;;;3.53;3.20;;;;;;;21.76;46.90;156961.47;5075744;28;20577;-77
2023/06/27 09:02:12;;;;;;;4.20;3.20;;;;;;;21.58;47.21;156914.47;5071493;28;20446;-77
2023/06/27 09:04:41;;;;;;;3.20;2.87;;;;;;;21.42;47.85;156872.72;5071309;28;20445;-77
2023/06/27 09:07:10;;;;;;;3.70;3.00;;;;;;;21.44;47.78;156876.66;5056154;28;20841;-77
2023/06/27 09:09:37;;;;;;;4.70;2.90;;;;;;;21.41;47.61;156868.81;5072543;28;20553;-77
2023/06/27 09:12:04;;;;;;;3.60;2.87;;;;;;;21.58;47.75;156913.16;5066739;28;20453;-77
2023/06/27 09:14:31;;;;;;;8.50;3.80;;;;;;;21.74;47.65;156954.94;5074869;28;20565;-77
2023/06/27 09:16:57;;;;;;;4.77;3.00;;;;;;;21.73;47.10;156953.69;5075611;28;20506;-77
2023/06/27 09:19:24;;;;;;;3.37;3.07;;;;;;;21.95;46.57;157009.84;5063082;28;20980;-77
2023/06/27 09:21:52;;;;;;;2.93;2.57;;;;;;;21.96;46.81;157011.16;5074270;28;20851;-77
2023/06/27 09:24:23;;;;;;;3.10;2.80;;;;;;;21.90;46.59;156995.47;5063535;28;20504;-77
2023/06/27 09:26:50;;;;;;;5.57;2.40;;;;;;;21.82;46.96;156975.84;5072636;28;20482;-77
2023/06/27 09:29:16;;;;;;;5.10;2.57;;;;;;;21.94;47.22;157005.94;5076055;28;20449;-77
2023/06/27 09:31:44;;;;;;;3.07;2.60;;;;;;;21.82;47.18;156977.16;5074963;28;20491;-77
2023/06/27 09:34:10;;;;;;;5.27;3.00;;;;;;;21.63;47.25;156927.53;5082343;28;20546;-77
2023/06/27 09:36:38;;;;;;;5.03;2.83;;;;;;;21.66;47.56;156935.38;5071478;28;20449;-77
2023/06/27 09:39:05;;;;;;;3.70;3.40;;;;;;;21.67;47.45;156938.00;5082564;28;20465;-77
2023/06/27 09:41:44;;;;;;;6.30;3.30;;;;;;;21.51;47.55;156896.22;5074582;28;20452;-76
2023/06/27 09:44:12;;;;;;;5.60;4.23;;;;;;;21.43;47.63;156875.34;5059791;28;20450;-76
2023/06/27 09:46:40;;;;;;;5.70;3.77;;;;;;;21.52;48.03;156897.53;5062845;28;20556;-76
2023/06/27 09:49:07;;;;;;;4.20;3.10;;;;;;;21.75;47.68;156958.91;5065839;28;20453;-76
2023/06/27 09:51:34;;;;;;;4.40;3.17;;;;;;;22.02;47.00;157026.84;5073224;28;20599;-76
2023/06/27 09:54:00;;;;;;;3.97;3.00;;;;;;;22.28;46.11;157094.75;5074176;28;20454;-76
2023/06/27 09:56:29;;;;;;;4.30;3.20;;;;;;;22.30;46.31;157099.94;5062885;28;20473;-77
2023/06/27 09:58:57;;;;;;;5.57;3.07;;;;;;;22.18;46.19;157069.94;5059247;28;20822;-76
2023/06/27 10:01:24;;;;;;;3.20;2.90;;;;;;;22.01;46.81;157024.22;5074777;28;20888;-77
2023/06/27 10:03:50;;;;;;;5.63;3.10;;;;;;;21.92;46.55;157002.03;5075023;28;20450;-77
2023/06/27 10:06:17;;;;;;;4.10;3.03;;;;;;;21.88;46.66;156990.25;5075181;28;20516;-77
2023/06/27 10:08:44;;;;;;;3.23;2.70;;;;;;;21.71;46.66;156948.44;5072230;28;20984;-77
2023/06/27 10:11:10;;;;;;;4.30;2.90;;;;;;;21.78;47.14;156966.75;5075059;28;20492;-77
2023/06/27 10:13:37;;;;;;;3.03;2.80;;;;;;;21.85;46.23;156985.00;5043963;28;20465;-77
2023/06/27 10:16:06;;;;;;;3.30;2.80;;;;;;;21.76;46.65;156960.22;5075170;28;20658;-76
2023/06/27 10:18:32;;;;;;;4.77;3.43;;;;;;;21.75;47.08;156958.91;5058393;28;20453;-76
2023/06/27 10:20:59;;;;;;;8.27;3.37;;;;;;;21.98;46.88;157016.38;5075320;28;20445;-76
2023/06/27 10:23:26;;;;;;;3.70;2.83;;;;;;;22.23;46.66;157081.69;5069422;28;20875;-77
2023/06/27 10:25:54;;;;;;;3.77;2.93;;;;;;;22.40;44.72;157126.06;5057356;28;20460;-77
2023/06/27 10:28:20;;;;;;;3.87;2.60;;;;;;;22.46;44.43;157141.75;5058122;28;20506;-77
2023/06/27 10:30:47;;;;;;;4.93;3.17;;;;;;;22.44;44.31;157136.53;5072325;28;20870;-77
2023/06/27 10:33:27;;;;;;;4.30;3.37;;;;;;;22.60;44.11;157177.03;5058723;28;20473;-77
2023/06/27 10:36:01;;;;;;;3.83;2.60;;;;;;;22.74;43.51;157213.69;5076604;28;20570;-77
2023/06/27 10:38:34;;;;;;;3.10;2.53;;;;;;;22.74;43.45;157213.69;5055166;28;20442;-77
2023/06/27 10:41:11;;;;;;;3.53;3.10;;;;;;;22.86;43.95;157246.31;5075765;28;20484;-77
2023/06/27 10:43:40;;;;;;;7.43;3.40;;;;;;;23.07;43.36;157298.56;5078822;28;20445;-77
2023/06/27 10:46:07;;;;;;;6.20;2.97;;;;;;;23.10;43.03;157306.41;5075195;28;21021;-77
2023/06/27 10:48:36;;;;;;;8.03;3.20;;;;;;;22.84;42.95;157241.13;5072925;28;20450;-77
2023/06/27 10:51:07;;;;;;;3.90;2.50;;;;;;;22.78;43.33;157225.41;5073177;28;20450;-77
2023/06/27 10:53:33;;;;;;;8.10;3.40;;;;;;;22.78;43.53;157225.41;5077382;28;20540;-77
2023/06/27 10:56:14;;;;;;;5.77;2.73;;;;;;;22.89;43.83;157252.84;5073546;28;20458;-77
2023/06/27 10:58:44;;;;;;;2.63;2.43;;;;;;;23.17;43.23;157324.69;5076330;28;20491;-77
2023/06/27 11:01:11;;;;;;;4.33;3.10;;;;;;;23.42;42.91;157390.13;5076796;28;20454;-77
2023/06/27 11:03:42;;;;;;;3.00;2.50;;;;;;;23.52;41.83;157416.25;5058370;28;20461;-78
2023/06/27 11:06:09;;;;;;;4.27;2.77;;;;;;;23.25;41.76;157346.94;5074882;28;20996;-78
2023/06/27 11:08:36;;;;;;;4.27;3.03;;;;;;;22.69;43.42;157201.88;5074017;28;20490;-77
2023/06/27 11:11:05;;;;;;;3.30;2.60;;;;;;;22.52;43.59;157157.44;5074970;28;20453;-77
2023/06/27 11:13:34;;;;;;;4.23;2.57;;;;;;;22.66;43.77;157192.78;5070687;28;20449;-78
2023/06/27 11:16:01;;;;;;;3.27;2.87;;;;;;;22.56;43.34;157167.88;5074992;28;20442;-77
2023/06/27 11:18:28;;;;;;;3.17;2.77;;;;;;;22.44;43.40;157136.53;5064105;28;20540;-77
2023/06/27 11:20:56;;;;;;;3.00;2.70;;;;;;;22.41;43.94;157128.69;5064363;28;20854;-77
2023/06/27 11:23:24;;;;;;;3.60;2.50;;;;;;;22.57;43.75;157170.50;5074706;28;20535;-77
2023/06/27 11:25:52;;;;;;;3.30;2.90;;;;;;;22.81;43.43;157231.94;5063734;28;20465;-77